Terminal Aerodrome Forecast
Issued by NWS

Home | Current Version | Previous Version | Graphics & Text | Print | Product List | Glossary On
Versions: 1 2 3 4 5 6 7 8 9 10 11 12 13 14 15 16 17 18 19 20 21
553
FTUS43 KICT 210529
TAFRSL
TAF
KRSL 210529Z 2106/2206 02008KT P6SM BKN150
     FM210900 02008KT 6SM BR OVC009
      TEMPO 2110/2113 3SM BR OVC006
     FM211300 02008KT 2SM BR OVC008
     FM211600 03011KT 6SM BR BKN008
     FM220000 35012KT 5SM BR OVC008=

USA.gov is the U.S. government's official web portal to all federal, state and local government web resources and services.